sensor_id;sensor_type;location;lat;lon;timestamp;P1;durP1;ratioP1;P2;durP2;ratioP2
46447;SDS011;32145;50.390;30.778;2024-03-29T00:02:32;12.15;;;4.47;;
46447;SDS011;32145;50.390;30.778;2024-03-29T00:05:28;13.18;;;4.47;;
46447;SDS011;32145;50.390;30.778;2024-03-29T00:08:25;9.95;;;4.32;;
46447;SDS011;32145;50.390;30.778;2024-03-29T00:11:21;15.55;;;4.78;;
46447;SDS011;32145;50.390;30.778;2024-03-29T00:14:19;7.97;;;4.40;;
46447;SDS011;32145;50.390;30.778;2024-03-29T00:17:15;8.07;;;4.22;;
46447;SDS011;32145;50.390;30.778;2024-03-29T00:20:11;12.23;;;4.80;;
46447;SDS011;32145;50.390;30.778;2024-03-29T00:23:08;12.27;;;5.32;;
46447;SDS011;32145;50.390;30.778;2024-03-29T00:26:04;12.57;;;4.55;;
46447;SDS011;32145;50.390;30.778;2024-03-29T00:29:00;10.00;;;4.88;;
46447;SDS011;32145;50.390;30.778;2024-03-29T00:31:59;8.18;;;4.35;;
46447;SDS011;32145;50.390;30.778;2024-03-29T00:34:55;10.60;;;4.20;;
46447;SDS011;32145;50.390;30.778;2024-03-29T00:37:51;11.10;;;4.28;;
46447;SDS011;32145;50.390;30.778;2024-03-29T00:40:48;9.55;;;4.32;;
46447;SDS011;32145;50.390;30.778;2024-03-29T00:43:44;8.60;;;4.43;;
46447;SDS011;32145;50.390;30.778;2024-03-29T00:46:40;9.23;;;4.55;;
46447;SDS011;32145;50.390;30.778;2024-03-29T00:49:38;9.13;;;4.00;;
46447;SDS011;32145;50.390;30.778;2024-03-29T00:52:32;10.27;;;3.95;;
46447;SDS011;32145;50.390;30.778;2024-03-29T00:55:27;10.25;;;4.07;;
46447;SDS011;32145;50.390;30.778;2024-03-29T00:58:21;9.50;;;4.97;;
46447;SDS011;32145;50.390;30.778;2024-03-29T01:01:16;7.10;;;4.25;;
46447;SDS011;32145;50.390;30.778;2024-03-29T01:04:10;8.77;;;3.92;;
46447;SDS011;32145;50.390;30.778;2024-03-29T01:07:06;8.35;;;4.10;;
46447;SDS011;32145;50.390;30.778;2024-03-29T01:10:00;9.02;;;4.50;;
46447;SDS011;32145;50.390;30.778;2024-03-29T01:12:54;8.13;;;4.10;;
46447;SDS011;32145;50.390;30.778;2024-03-29T01:15:49;9.50;;;4.38;;
46447;SDS011;32145;50.390;30.778;2024-03-29T01:18:45;9.73;;;4.78;;
46447;SDS011;32145;50.390;30.778;2024-03-29T01:21:41;8.95;;;3.90;;
46447;SDS011;32145;50.390;30.778;2024-03-29T01:24:39;9.75;;;4.43;;
46447;SDS011;32145;50.390;30.778;2024-03-29T01:27:35;10.93;;;5.10;;
46447;SDS011;32145;50.390;30.778;2024-03-29T01:30:32;11.23;;;5.53;;
46447;SDS011;32145;50.390;30.778;2024-03-29T01:33:28;13.80;;;5.53;;
46447;SDS011;32145;50.390;30.778;2024-03-29T01:36:24;15.38;;;5.45;;
46447;SDS011;32145;50.390;30.778;2024-03-29T01:39:21;15.05;;;5.78;;
46447;SDS011;32145;50.390;30.778;2024-03-29T01:42:16;15.50;;;5.95;;
46447;SDS011;32145;50.390;30.778;2024-03-29T01:45:10;12.93;;;6.00;;
46447;SDS011;32145;50.390;30.778;2024-03-29T01:48:05;15.98;;;6.35;;
46447;SDS011;32145;50.390;30.778;2024-03-29T01:51:00;12.55;;;6.00;;
46447;SDS011;32145;50.390;30.778;2024-03-29T01:53:56;16.65;;;6.00;;
46447;SDS011;32145;50.390;30.778;2024-03-29T01:56:50;12.68;;;6.28;;
46447;SDS011;32145;50.390;30.778;2024-03-29T01:59:46;13.23;;;6.10;;
46447;SDS011;32145;50.390;30.778;2024-03-29T02:02:41;15.75;;;6.07;;
46447;SDS011;32145;50.390;30.778;2024-03-29T02:05:35;17.80;;;6.53;;
46447;SDS011;32145;50.390;30.778;2024-03-29T02:08:32;13.25;;;6.22;;
46447;SDS011;32145;50.390;30.778;2024-03-29T02:11:27;14.43;;;6.38;;
46447;SDS011;32145;50.390;30.778;2024-03-29T02:14:22;17.40;;;6.63;;
46447;SDS011;32145;50.390;30.778;2024-03-29T02:17:17;15.43;;;5.97;;
46447;SDS011;32145;50.390;30.778;2024-03-29T02:20:12;17.08;;;6.68;;
46447;SDS011;32145;50.390;30.778;2024-03-29T02:23:06;12.07;;;6.22;;
46447;SDS011;32145;50.390;30.778;2024-03-29T02:26:06;14.20;;;5.97;;
46447;SDS011;32145;50.390;30.778;2024-03-29T02:29:01;15.15;;;5.75;;
46447;SDS011;32145;50.390;30.778;2024-03-29T02:31:55;17.48;;;6.05;;
46447;SDS011;32145;50.390;30.778;2024-03-29T02:34:49;14.45;;;5.70;;
46447;SDS011;32145;50.390;30.778;2024-03-29T02:37:45;14.25;;;6.15;;
46447;SDS011;32145;50.390;30.778;2024-03-29T02:40:42;12.43;;;5.65;;
46447;SDS011;32145;50.390;30.778;2024-03-29T02:43:39;11.13;;;5.40;;
46447;SDS011;32145;50.390;30.778;2024-03-29T02:46:36;11.93;;;5.72;;
46447;SDS011;32145;50.390;30.778;2024-03-29T02:49:32;11.82;;;6.30;;
46447;SDS011;32145;50.390;30.778;2024-03-29T02:52:28;14.77;;;6.43;;
46447;SDS011;32145;50.390;30.778;2024-03-29T02:55:24;14.43;;;5.82;;
46447;SDS011;32145;50.390;30.778;2024-03-29T02:58:21;16.35;;;6.00;;
46447;SDS011;32145;50.390;30.778;2024-03-29T03:01:19;19.27;;;6.47;;
46447;SDS011;32145;50.390;30.778;2024-03-29T03:04:15;15.40;;;6.75;;
46447;SDS011;32145;50.390;30.778;2024-03-29T03:07:11;16.38;;;6.50;;
46447;SDS011;32145;50.390;30.778;2024-03-29T03:10:06;14.38;;;6.97;;
46447;SDS011;32145;50.390;30.778;2024-03-29T03:13:00;13.88;;;5.90;;
46447;SDS011;32145;50.390;30.778;2024-03-29T03:15:55;13.98;;;6.75;;
46447;SDS011;32145;50.390;30.778;2024-03-29T03:18:51;17.55;;;6.63;;
46447;SDS011;32145;50.390;30.778;2024-03-29T03:21:47;18.25;;;6.93;;
46447;SDS011;32145;50.390;30.778;2024-03-29T03:24:46;17.02;;;7.18;;
46447;SDS011;32145;50.390;30.778;2024-03-29T03:27:42;13.65;;;6.97;;
46447;SDS011;32145;50.390;30.778;2024-03-29T03:30:39;15.77;;;6.45;;
46447;SDS011;32145;50.390;30.778;2024-03-29T03:33:35;20.25;;;7.10;;
46447;SDS011;32145;50.390;30.778;2024-03-29T03:36:32;14.00;;;7.07;;
46447;SDS011;32145;50.390;30.778;2024-03-29T03:39:29;11.95;;;6.65;;
46447;SDS011;32145;50.390;30.778;2024-03-29T03:42:25;12.95;;;6.72;;
46447;SDS011;32145;50.390;30.778;2024-03-29T03:45:22;15.48;;;7.22;;
46447;SDS011;32145;50.390;30.778;2024-03-29T03:48:16;15.40;;;6.38;;
46447;SDS011;32145;50.390;30.778;2024-03-29T03:51:10;12.98;;;6.38;;
46447;SDS011;32145;50.390;30.778;2024-03-29T03:54:06;11.88;;;6.18;;
46447;SDS011;32145;50.390;30.778;2024-03-29T03:57:00;15.30;;;6.68;;
46447;SDS011;32145;50.390;30.778;2024-03-29T03:59:55;12.75;;;6.30;;
46447;SDS011;32145;50.390;30.778;2024-03-29T04:02:49;15.63;;;6.43;;
46447;SDS011;32145;50.390;30.778;2024-03-29T04:05:44;12.70;;;6.43;;
46447;SDS011;32145;50.390;30.778;2024-03-29T04:08:38;13.07;;;6.20;;
46447;SDS011;32145;50.390;30.778;2024-03-29T04:11:34;15.18;;;6.15;;
46447;SDS011;32145;50.390;30.778;2024-03-29T04:14:28;14.70;;;6.15;;
46447;SDS011;32145;50.390;30.778;2024-03-29T04:17:23;12.10;;;6.35;;
46447;SDS011;32145;50.390;30.778;2024-03-29T04:20:17;11.30;;;6.07;;
46447;SDS011;32145;50.390;30.778;2024-03-29T04:23:11;15.02;;;6.78;;
46447;SDS011;32145;50.390;30.778;2024-03-29T04:26:05;12.85;;;6.80;;
46447;SDS011;32145;50.390;30.778;2024-03-29T04:29:01;15.85;;;6.30;;
46447;SDS011;32145;50.390;30.778;2024-03-29T04:31:55;17.15;;;6.22;;
46447;SDS011;32145;50.390;30.778;2024-03-29T04:34:49;14.20;;;6.75;;
46447;SDS011;32145;50.390;30.778;2024-03-29T04:37:46;18.80;;;6.40;;
46447;SDS011;32145;50.390;30.778;2024-03-29T04:40:42;13.40;;;6.07;;
46447;SDS011;32145;50.390;30.778;2024-03-29T04:43:37;14.45;;;5.85;;
46447;SDS011;32145;50.390;30.778;2024-03-29T04:46:32;16.13;;;6.40;;
46447;SDS011;32145;50.390;30.778;2024-03-29T04:49:27;17.67;;;5.82;;
46447;SDS011;32145;50.390;30.778;2024-03-29T04:52:21;12.13;;;5.60;;
46447;SDS011;32145;50.390;30.778;2024-03-29T04:55:17;14.75;;;5.70;;
46447;SDS011;32145;50.390;30.778;2024-03-29T04:58:14;17.00;;;5.70;;
46447;SDS011;32145;50.390;30.778;2024-03-29T05:01:10;12.88;;;5.43;;
46447;SDS011;32145;50.390;30.778;2024-03-29T05:04:08;12.80;;;5.68;;
46447;SDS011;32145;50.390;30.778;2024-03-29T05:07:04;17.10;;;6.32;;
46447;SDS011;32145;50.390;30.778;2024-03-29T05:10:01;15.60;;;6.18;;
46447;SDS011;32145;50.390;30.778;2024-03-29T05:12:57;13.80;;;6.50;;
46447;SDS011;32145;50.390;30.778;2024-03-29T05:15:53;16.40;;;6.50;;
46447;SDS011;32145;50.390;30.778;2024-03-29T05:18:47;13.10;;;6.65;;
46447;SDS011;32145;50.390;30.778;2024-03-29T05:21:43;17.05;;;7.65;;
46447;SDS011;32145;50.390;30.778;2024-03-29T05:24:37;15.07;;;7.15;;
46447;SDS011;32145;50.390;30.778;2024-03-29T05:27:32;15.18;;;6.60;;
46447;SDS011;32145;50.390;30.778;2024-03-29T05:30:26;14.15;;;6.20;;
46447;SDS011;32145;50.390;30.778;2024-03-29T05:33:20;15.02;;;6.65;;
46447;SDS011;32145;50.390;30.778;2024-03-29T05:36:15;15.20;;;6.38;;
46447;SDS011;32145;50.390;30.778;2024-03-29T05:39:10;15.63;;;7.07;;
46447;SDS011;32145;50.390;30.778;2024-03-29T05:42:05;17.40;;;7.15;;
46447;SDS011;32145;50.390;30.778;2024-03-29T05:45:00;18.90;;;7.07;;
46447;SDS011;32145;50.390;30.778;2024-03-29T05:47:55;15.98;;;6.50;;
46447;SDS011;32145;50.390;30.778;2024-03-29T05:50:49;19.30;;;7.53;;
46447;SDS011;32145;50.390;30.778;2024-03-29T05:53:43;21.23;;;6.80;;
46447;SDS011;32145;50.390;30.778;2024-03-29T05:56:39;18.77;;;6.95;;
46447;SDS011;32145;50.390;30.778;2024-03-29T05:59:33;17.45;;;6.97;;
46447;SDS011;32145;50.390;30.778;2024-03-29T06:02:28;15.90;;;6.47;;
46447;SDS011;32145;50.390;30.778;2024-03-29T06:05:22;18.85;;;7.18;;
46447;SDS011;32145;50.390;30.778;2024-03-29T06:08:17;16.92;;;8.25;;
46447;SDS011;32145;50.390;30.778;2024-03-29T06:11:11;24.92;;;10.77;;
46447;SDS011;32145;50.390;30.778;2024-03-29T06:14:09;24.05;;;12.35;;
46447;SDS011;32145;50.390;30.778;2024-03-29T06:17:06;19.35;;;8.80;;
46447;SDS011;32145;50.390;30.778;2024-03-29T06:20:02;20.27;;;8.60;;
46447;SDS011;32145;50.390;30.778;2024-03-29T06:22:59;21.20;;;9.50;;
46447;SDS011;32145;50.390;30.778;2024-03-29T06:25:55;20.10;;;9.95;;
46447;SDS011;32145;50.390;30.778;2024-03-29T06:28:52;22.25;;;10.73;;
46447;SDS011;32145;50.390;30.778;2024-03-29T06:31:49;22.98;;;10.25;;
46447;SDS011;32145;50.390;30.778;2024-03-29T06:34:46;21.63;;;8.48;;
46447;SDS011;32145;50.390;30.778;2024-03-29T06:37:43;17.48;;;6.35;;
46447;SDS011;32145;50.390;30.778;2024-03-29T06:40:39;18.17;;;7.38;;
46447;SDS011;32145;50.390;30.778;2024-03-29T06:43:35;16.40;;;6.07;;
46447;SDS011;32145;50.390;30.778;2024-03-29T06:46:32;18.42;;;6.25;;
46447;SDS011;32145;50.390;30.778;2024-03-29T06:49:29;17.05;;;8.48;;
46447;SDS011;32145;50.390;30.778;2024-03-29T06:52:27;14.07;;;6.38;;
46447;SDS011;32145;50.390;30.778;2024-03-29T06:55:23;12.95;;;5.82;;
46447;SDS011;32145;50.390;30.778;2024-03-29T06:58:19;16.33;;;4.90;;
46447;SDS011;32145;50.390;30.778;2024-03-29T07:01:16;8.02;;;4.28;;
46447;SDS011;32145;50.390;30.778;2024-03-29T07:04:12;16.10;;;4.55;;
46447;SDS011;32145;50.390;30.778;2024-03-29T07:07:09;9.95;;;4.43;;
46447;SDS011;32145;50.390;30.778;2024-03-29T07:10:06;13.88;;;4.35;;
46447;SDS011;32145;50.390;30.778;2024-03-29T07:13:03;10.63;;;4.55;;
46447;SDS011;32145;50.390;30.778;2024-03-29T07:15:59;10.52;;;4.05;;
46447;SDS011;32145;50.390;30.778;2024-03-29T07:18:56;13.55;;;7.20;;
46447;SDS011;32145;50.390;30.778;2024-03-29T07:21:53;10.45;;;4.20;;
46447;SDS011;32145;50.390;30.778;2024-03-29T07:24:52;11.13;;;4.90;;
46447;SDS011;32145;50.390;30.778;2024-03-29T07:27:48;10.65;;;4.57;;
46447;SDS011;32145;50.390;30.778;2024-03-29T07:30:45;16.25;;;4.90;;
46447;SDS011;32145;50.390;30.778;2024-03-29T07:33:43;15.98;;;6.82;;
46447;SDS011;32145;50.390;30.778;2024-03-29T07:36:39;17.40;;;6.68;;
46447;SDS011;32145;50.390;30.778;2024-03-29T07:39:36;14.48;;;5.22;;
46447;SDS011;32145;50.390;30.778;2024-03-29T07:42:31;12.23;;;4.53;;
46447;SDS011;32145;50.390;30.778;2024-03-29T07:45:28;13.65;;;5.15;;
46447;SDS011;32145;50.390;30.778;2024-03-29T07:48:18;14.70;;;5.97;;
46447;SDS011;32145;50.390;30.778;2024-03-29T07:51:12;12.90;;;5.95;;
46447;SDS011;32145;50.390;30.778;2024-03-29T07:54:02;17.17;;;7.20;;
46447;SDS011;32145;50.390;30.778;2024-03-29T07:56:57;14.23;;;6.15;;
46447;SDS011;32145;50.390;30.778;2024-03-29T07:59:52;15.70;;;5.53;;
46447;SDS011;32145;50.390;30.778;2024-03-29T08:02:49;13.73;;;5.30;;
46447;SDS011;32145;50.390;30.778;2024-03-29T08:05:54;17.35;;;5.60;;
46447;SDS011;32145;50.390;30.778;2024-03-29T08:08:52;15.95;;;5.80;;
46447;SDS011;32145;50.390;30.778;2024-03-29T08:11:50;10.52;;;5.00;;
46447;SDS011;32145;50.390;30.778;2024-03-29T08:14:38;13.32;;;5.50;;
46447;SDS011;32145;50.390;30.778;2024-03-29T08:17:36;21.67;;;8.02;;
46447;SDS011;32145;50.390;30.778;2024-03-29T08:20:30;14.88;;;6.70;;
46447;SDS011;32145;50.390;30.778;2024-03-29T08:23:18;18.05;;;8.73;;
46447;SDS011;32145;50.390;30.778;2024-03-29T08:26:15;25.50;;;11.65;;
46447;SDS011;32145;50.390;30.778;2024-03-29T08:29:11;39.47;;;26.67;;
46447;SDS011;32145;50.390;30.778;2024-03-29T08:32:07;36.90;;;14.27;;
46447;SDS011;32145;50.390;30.778;2024-03-29T08:35:05;40.78;;;22.17;;
46447;SDS011;32145;50.390;30.778;2024-03-29T08:38:02;51.45;;;32.88;;
46447;SDS011;32145;50.390;30.778;2024-03-29T08:40:53;22.27;;;12.80;;
46447;SDS011;32145;50.390;30.778;2024-03-29T08:43:47;40.60;;;19.92;;
46447;SDS011;32145;50.390;30.778;2024-03-29T08:46:41;27.02;;;16.23;;
46447;SDS011;32145;50.390;30.778;2024-03-29T08:49:35;67.00;;;18.02;;
46447;SDS011;32145;50.390;30.778;2024-03-29T08:52:33;27.05;;;10.60;;
46447;SDS011;32145;50.390;30.778;2024-03-29T08:58:19;74.73;;;26.67;;
46447;SDS011;32145;50.390;30.778;2024-03-29T09:01:16;50.22;;;23.92;;
46447;SDS011;32145;50.390;30.778;2024-03-29T09:04:06;54.67;;;32.83;;
46447;SDS011;32145;50.390;30.778;2024-03-29T09:06:54;23.20;;;11.20;;
46447;SDS011;32145;50.390;30.778;2024-03-29T09:09:52;18.15;;;9.82;;
46447;SDS011;32145;50.390;30.778;2024-03-29T09:12:48;25.48;;;13.20;;
46447;SDS011;32145;50.390;30.778;2024-03-29T09:15:44;27.63;;;17.35;;
46447;SDS011;32145;50.390;30.778;2024-03-29T09:18:38;21.50;;;14.38;;
46447;SDS011;32145;50.390;30.778;2024-03-29T09:21:35;23.25;;;14.98;;
46447;SDS011;32145;50.390;30.778;2024-03-29T09:24:31;18.65;;;10.40;;
46447;SDS011;32145;50.390;30.778;2024-03-29T09:27:31;37.58;;;21.58;;
46447;SDS011;32145;50.390;30.778;2024-03-29T09:30:25;33.38;;;18.52;;
46447;SDS011;32145;50.390;30.778;2024-03-29T09:33:22;15.68;;;7.95;;
46447;SDS011;32145;50.390;30.778;2024-03-29T09:36:21;16.33;;;6.78;;
46447;SDS011;32145;50.390;30.778;2024-03-29T09:39:15;25.85;;;11.27;;
46447;SDS011;32145;50.390;30.778;2024-03-29T09:42:14;18.02;;;7.93;;
46447;SDS011;32145;50.390;30.778;2024-03-29T09:45:13;23.63;;;14.15;;
46447;SDS011;32145;50.390;30.778;2024-03-29T09:48:10;14.73;;;6.80;;
46447;SDS011;32145;50.390;30.778;2024-03-29T09:51:08;13.40;;;6.88;;
46447;SDS011;32145;50.390;30.778;2024-03-29T09:54:05;13.60;;;7.35;;
46447;SDS011;32145;50.390;30.778;2024-03-29T09:57:02;15.13;;;7.63;;
46447;SDS011;32145;50.390;30.778;2024-03-29T09:59:58;14.68;;;7.35;;
46447;SDS011;32145;50.390;30.778;2024-03-29T10:02:56;13.32;;;7.45;;
46447;SDS011;32145;50.390;30.778;2024-03-29T10:05:53;14.30;;;7.30;;
46447;SDS011;32145;50.390;30.778;2024-03-29T10:08:41;13.13;;;6.60;;
46447;SDS011;32145;50.390;30.778;2024-03-29T10:11:37;12.18;;;5.38;;
46447;SDS011;32145;50.390;30.778;2024-03-29T10:14:32;11.70;;;6.35;;
46447;SDS011;32145;50.390;30.778;2024-03-29T10:17:30;13.70;;;6.50;;
46447;SDS011;32145;50.390;30.778;2024-03-29T10:20:28;18.02;;;6.28;;
46447;SDS011;32145;50.390;30.778;2024-03-29T10:23:25;10.77;;;4.75;;
46447;SDS011;32145;50.390;30.778;2024-03-29T10:26:21;10.02;;;4.80;;
46447;SDS011;32145;50.390;30.778;2024-03-29T10:29:17;10.05;;;5.07;;
46447;SDS011;32145;50.390;30.778;2024-03-29T10:32:14;13.80;;;5.88;;
46447;SDS011;32145;50.390;30.778;2024-03-29T10:35:10;9.90;;;5.38;;
46447;SDS011;32145;50.390;30.778;2024-03-29T10:38:10;11.32;;;6.00;;
46447;SDS011;32145;50.390;30.778;2024-03-29T10:40:59;9.85;;;4.78;;
46447;SDS011;32145;50.390;30.778;2024-03-29T10:43:57;11.65;;;5.32;;
46447;SDS011;32145;50.390;30.778;2024-03-29T10:46:56;11.57;;;5.57;;
46447;SDS011;32145;50.390;30.778;2024-03-29T10:49:52;10.93;;;5.30;;
46447;SDS011;32145;50.390;30.778;2024-03-29T10:55:50;14.43;;;5.28;;
46447;SDS011;32145;50.390;30.778;2024-03-29T10:58:50;13.25;;;5.68;;
46447;SDS011;32145;50.390;30.778;2024-03-29T11:01:55;13.00;;;5.28;;
46447;SDS011;32145;50.390;30.778;2024-03-29T11:04:49;10.50;;;5.65;;
46447;SDS011;32145;50.390;30.778;2024-03-29T11:07:45;13.23;;;5.75;;
46447;SDS011;32145;50.390;30.778;2024-03-29T11:10:41;12.90;;;5.90;;
46447;SDS011;32145;50.390;30.778;2024-03-29T11:13:41;13.38;;;6.60;;
46447;SDS011;32145;50.390;30.778;2024-03-29T11:16:35;18.48;;;9.27;;
46447;SDS011;32145;50.390;30.778;2024-03-29T11:19:34;19.08;;;8.70;;
46447;SDS011;32145;50.390;30.778;2024-03-29T11:22:22;15.90;;;7.35;;
46447;SDS011;32145;50.390;30.778;2024-03-29T11:25:19;9.63;;;5.70;;
46447;SDS011;32145;50.390;30.778;2024-03-29T11:28:16;15.60;;;6.97;;
46447;SDS011;32145;50.390;30.778;2024-03-29T11:31:23;12.60;;;7.03;;
46447;SDS011;32145;50.390;30.778;2024-03-29T11:34:18;15.55;;;6.90;;
46447;SDS011;32145;50.390;30.778;2024-03-29T11:37:13;12.52;;;6.50;;
46447;SDS011;32145;50.390;30.778;2024-03-29T11:40:10;11.55;;;7.32;;
46447;SDS011;32145;50.390;30.778;2024-03-29T11:43:07;10.02;;;6.22;;
46447;SDS011;32145;50.390;30.778;2024-03-29T11:45:55;12.50;;;6.70;;
46447;SDS011;32145;50.390;30.778;2024-03-29T11:48:49;10.30;;;6.35;;
46447;SDS011;32145;50.390;30.778;2024-03-29T11:51:46;13.82;;;6.03;;
46447;SDS011;32145;50.390;30.778;2024-03-29T11:54:37;11.60;;;6.40;;
46447;SDS011;32145;50.390;30.778;2024-03-29T11:57:32;10.77;;;6.32;;
46447;SDS011;32145;50.390;30.778;2024-03-29T12:00:20;12.70;;;6.13;;
46447;SDS011;32145;50.390;30.778;2024-03-29T12:03:16;10.13;;;5.95;;
46447;SDS011;32145;50.390;30.778;2024-03-29T12:06:13;10.75;;;6.22;;
46447;SDS011;32145;50.390;30.778;2024-03-29T12:09:11;13.48;;;6.75;;
46447;SDS011;32145;50.390;30.778;2024-03-29T12:12:08;12.35;;;6.75;;
46447;SDS011;32145;50.390;30.778;2024-03-29T12:15:05;14.23;;;7.55;;
46447;SDS011;32145;50.390;30.778;2024-03-29T12:18:02;13.20;;;7.97;;
46447;SDS011;32145;50.390;30.778;2024-03-29T12:20:59;15.90;;;8.65;;
46447;SDS011;32145;50.390;30.778;2024-03-29T12:23:57;11.38;;;8.90;;
46447;SDS011;32145;50.390;30.778;2024-03-29T12:26:54;16.73;;;10.30;;
46447;SDS011;32145;50.390;30.778;2024-03-29T12:29:45;18.75;;;11.95;;
46447;SDS011;32145;50.390;30.778;2024-03-29T12:32:39;23.75;;;12.93;;
46447;SDS011;32145;50.390;30.778;2024-03-29T12:35:36;20.00;;;12.15;;
46447;SDS011;32145;50.390;30.778;2024-03-29T12:38:25;17.83;;;12.80;;
46447;SDS011;32145;50.390;30.778;2024-03-29T12:41:22;24.40;;;13.68;;
46447;SDS011;32145;50.390;30.778;2024-03-29T12:44:19;28.38;;;14.52;;
46447;SDS011;32145;50.390;30.778;2024-03-29T12:47:07;27.75;;;14.48;;
46447;SDS011;32145;50.390;30.778;2024-03-29T12:50:04;24.52;;;13.75;;
46447;SDS011;32145;50.390;30.778;2024-03-29T12:53:02;21.80;;;14.02;;
46447;SDS011;32145;50.390;30.778;2024-03-29T12:56:02;23.50;;;14.45;;
46447;SDS011;32145;50.390;30.778;2024-03-29T12:59:00;20.75;;;14.55;;
46447;SDS011;32145;50.390;30.778;2024-03-29T13:01:58;28.75;;;15.32;;
46447;SDS011;32145;50.390;30.778;2024-03-29T13:04:46;24.40;;;15.15;;
46447;SDS011;32145;50.390;30.778;2024-03-29T13:07:42;27.52;;;15.93;;
46447;SDS011;32145;50.390;30.778;2024-03-29T13:10:39;21.35;;;13.15;;
46447;SDS011;32145;50.390;30.778;2024-03-29T13:13:35;21.52;;;12.65;;
46447;SDS011;32145;50.390;30.778;2024-03-29T13:16:27;19.83;;;12.93;;
46447;SDS011;32145;50.390;30.778;2024-03-29T13:19:21;18.63;;;11.52;;
46447;SDS011;32145;50.390;30.778;2024-03-29T13:22:10;16.33;;;10.63;;
46447;SDS011;32145;50.390;30.778;2024-03-29T13:25:06;14.20;;;10.02;;
46447;SDS011;32145;50.390;30.778;2024-03-29T13:28:04;14.52;;;8.98;;
46447;SDS011;32145;50.390;30.778;2024-03-29T13:30:59;15.43;;;8.88;;
46447;SDS011;32145;50.390;30.778;2024-03-29T13:33:49;14.82;;;7.97;;
46447;SDS011;32145;50.390;30.778;2024-03-29T13:36:45;11.45;;;8.05;;
46447;SDS011;32145;50.390;30.778;2024-03-29T13:39:41;10.57;;;7.05;;
46447;SDS011;32145;50.390;30.778;2024-03-29T13:42:32;9.30;;;6.30;;
46447;SDS011;32145;50.390;30.778;2024-03-29T13:45:26;7.93;;;6.13;;
46447;SDS011;32145;50.390;30.778;2024-03-29T13:48:23;8.20;;;5.13;;
46447;SDS011;32145;50.390;30.778;2024-03-29T13:51:20;6.95;;;4.65;;
46447;SDS011;32145;50.390;30.778;2024-03-29T13:54:16;9.70;;;4.35;;
46447;SDS011;32145;50.390;30.778;2024-03-29T13:57:14;6.60;;;4.40;;
46447;SDS011;32145;50.390;30.778;2024-03-29T14:00:03;7.78;;;4.43;;
46447;SDS011;32145;50.390;30.778;2024-03-29T14:02:53;6.93;;;4.15;;
46447;SDS011;32145;50.390;30.778;2024-03-29T14:05:48;6.85;;;4.20;;
46447;SDS011;32145;50.390;30.778;2024-03-29T14:08:37;7.00;;;4.45;;
46447;SDS011;32145;50.390;30.778;2024-03-29T14:11:28;5.93;;;3.63;;
46447;SDS011;32145;50.390;30.778;2024-03-29T14:14:16;6.40;;;3.80;;
46447;SDS011;32145;50.390;30.778;2024-03-29T14:17:12;5.25;;;2.97;;
46447;SDS011;32145;50.390;30.778;2024-03-29T14:20:09;7.05;;;3.08;;
46447;SDS011;32145;50.390;30.778;2024-03-29T14:23:00;5.13;;;3.08;;
46447;SDS011;32145;50.390;30.778;2024-03-29T14:25:56;3.67;;;2.60;;
46447;SDS011;32145;50.390;30.778;2024-03-29T14:28:50;5.22;;;2.20;;
46447;SDS011;32145;50.390;30.778;2024-03-29T14:31:38;3.63;;;2.40;;
46447;SDS011;32145;50.390;30.778;2024-03-29T14:34:29;5.28;;;2.40;;
46447;SDS011;32145;50.390;30.778;2024-03-29T14:37:23;6.05;;;2.33;;
46447;SDS011;32145;50.390;30.778;2024-03-29T14:40:17;5.43;;;2.30;;
46447;SDS011;32145;50.390;30.778;2024-03-29T14:43:07;3.97;;;2.03;;
46447;SDS011;32145;50.390;30.778;2024-03-29T14:45:57;4.03;;;2.17;;
46447;SDS011;32145;50.390;30.778;2024-03-29T14:48:52;4.75;;;2.30;;
46447;SDS011;32145;50.390;30.778;2024-03-29T14:51:46;3.97;;;1.90;;
46447;SDS011;32145;50.390;30.778;2024-03-29T14:54:43;4.18;;;1.73;;
46447;SDS011;32145;50.390;30.778;2024-03-29T14:57:39;3.40;;;1.77;;
46447;SDS011;32145;50.390;30.778;2024-03-29T15:00:35;3.22;;;1.92;;
46447;SDS011;32145;50.390;30.778;2024-03-29T15:03:29;4.00;;;2.10;;
46447;SDS011;32145;50.390;30.778;2024-03-29T15:06:24;3.15;;;1.90;;
46447;SDS011;32145;50.390;30.778;2024-03-29T15:09:18;3.63;;;2.22;;
46447;SDS011;32145;50.390;30.778;2024-03-29T15:12:06;3.97;;;1.83;;
46447;SDS011;32145;50.390;30.778;2024-03-29T15:15:05;3.88;;;2.08;;
46447;SDS011;32145;50.390;30.778;2024-03-29T15:18:01;3.03;;;1.90;;
